Time;durP1;ratioP1;P1;durP2;ratioP2;P2;SDS_P1;SDS_P2;PMS_P1;PMS_P2;Temp;Humidity;BMP_temperature;BMP_pressure;BME280_temperature;BME280_humidity;BME280_pressure;Samples;Min_cycle;Max_cycle;Signal;HPM_P1;HPM_P2
2022/09/06 00:01:31;;;;;;;3.90;2.63;;;;;;;9.56;59.38;95909.59;6241318;28;20049;-62
2022/09/06 00:04:33;;;;;;;3.15;2.03;;;;;;;9.55;59.39;95902.69;6240638;28;20049;-65
2022/09/06 00:07:37;;;;;;;;;;;;;;;9.51;59.23;95898.59;6242345;28;20041;-61
2022/09/06 00:10:41;;;;;;;3.10;1.75;;;;;;;9.49;59.49;95911.03;6243153;28;19928;-61
2022/09/06 00:13:43;;;;;;;4.82;2.00;;;;;;;9.47;59.90;95897.19;6243284;28;20186;-60
2022/09/06 00:16:45;;;;;;;1.83;1.50;;;;;;;9.41;60.04;95883.56;6243722;28;20041;-61
2022/09/06 00:19:47;;;;;;;3.70;2.03;;;;;;;9.34;60.30;95890.25;6243905;28;20119;-61
2022/09/06 00:22:57;;;;;;;2.40;1.75;;;;;;;9.21;60.67;95895.56;6244159;28;20049;-60
2022/09/06 00:26:05;;;;;;;3.42;2.03;;;;;;;9.12;61.02;95890.19;6243081;28;20088;-61
2022/09/06 00:29:11;;;;;;;5.40;1.88;;;;;;;9.08;61.27;95888.72;6243110;28;20168;-60
2022/09/06 00:32:12;;;;;;;3.75;2.40;;;;;;;8.96;61.48;95879.97;6231229;28;20057;-61
2022/09/06 00:35:14;;;;;;;3.50;2.10;;;;;;;8.92;61.85;95884.63;6243384;28;20994;-61
2022/09/06 00:38:16;;;;;;;4.15;2.05;;;;;;;8.88;62.04;95877.91;6257001;28;20516;-61
2022/09/06 00:41:18;;;;;;;2.47;2.10;;;;;;;8.88;62.17;95882.34;6268053;28;20550;-60
2022/09/06 00:44:19;;;;;;;3.08;2.03;;;;;;;8.85;62.27;95888.63;6243231;28;20519;-63
2022/09/06 00:47:23;;;;;;;3.90;2.65;;;;;;;8.85;62.37;95887.81;6230531;28;20037;-62
2022/09/06 00:50:26;;;;;;;4.38;2.58;;;;;;;8.83;62.38;95877.44;6241678;28;20599;-63
2022/09/06 00:53:30;;;;;;;2.30;2.10;;;;;;;8.77;62.73;95890.97;6240401;28;20052;-63
2022/09/06 00:56:38;;;;;;;5.72;2.25;;;;;;;8.77;62.80;95890.97;6239312;28;20429;-61
2022/09/06 00:59:41;;;;;;;3.70;2.15;;;;;;;8.68;63.16;95881.19;6238607;28;20144;-62
2022/09/06 01:02:42;;;;;;;3.77;2.50;;;;;;;8.76;63.03;95873.59;6238714;28;20136;-61
2022/09/06 01:05:47;;;;;;;4.05;2.33;;;;;;;8.70;63.04;95874.88;6237925;28;20589;-62
2022/09/06 01:09:09;;;;;;;2.67;2.17;;;;;;;8.73;63.24;95879.88;6240366;28;20044;-63
2022/09/06 01:12:37;;;;;;;4.45;2.70;;;;;;;8.74;63.12;95878.09;6239252;28;20049;-62
2022/09/06 01:15:50;;;;;;;5.28;2.47;;;;;;;8.67;63.52;95875.09;6240000;28;20034;-62
2022/09/06 01:19:13;;;;;;;3.80;2.15;;;;;;;8.66;63.49;95872.56;6242737;28;20047;-62
2022/09/06 01:22:52;;;;;;;2.35;2.00;;;;;;;8.64;63.57;95885.00;6240510;28;20071;-63
2022/09/06 01:26:04;;;;;;;5.70;2.50;;;;;;;8.62;63.55;95881.63;6239804;28;20424;-63
2022/09/06 01:29:29;;;;;;;4.10;2.40;;;;;;;8.66;63.30;95883.06;6240942;28;20105;-63
2022/09/06 01:32:42;;;;;;;3.58;2.60;;;;;;;8.64;63.37;95879.75;6240514;28;20042;-63
2022/09/06 01:35:56;;;;;;;4.45;2.90;;;;;;;8.63;63.43;95878.88;6241213;28;20057;-62
2022/09/06 01:39:00;;;;;;;6.30;3.53;;;;;;;8.60;63.42;95886.13;6240891;28;20060;-63
2022/09/06 01:42:12;;;;;;;5.25;3.08;;;;;;;8.58;63.68;95881.03;6245374;28;20175;-62
2022/09/06 01:45:22;;;;;;;5.40;3.38;;;;;;;8.61;63.37;95885.22;6245092;28;20052;-63
2022/09/06 01:49:08;;;;;;;4.28;2.63;;;;;;;8.66;63.44;95886.56;6245091;28;20065;-63
2022/09/06 01:52:17;;;;;;;5.45;2.40;;;;;;;8.64;63.27;95882.38;6239801;28;20057;-62
2022/09/06 01:55:36;;;;;;;6.90;2.30;;;;;;;8.75;63.08;95893.75;6244591;28;20049;-62
2022/09/06 01:59:25;;;;;;;2.40;2.10;;;;;;;8.83;63.06;95890.56;6244707;28;20190;-62
2022/09/06 02:02:44;;;;;;;5.38;2.28;;;;;;;8.90;62.55;95883.91;6239821;28;20045;-62
2022/09/06 02:05:50;;;;;;;4.38;2.50;;;;;;;9.04;62.11;95895.16;6241318;28;20561;-63
2022/09/06 02:09:06;;;;;;;2.95;2.03;;;;;;;9.03;62.37;95889.09;6243994;28;20049;-63
2022/09/06 02:12:12;;;;;;;4.57;2.40;;;;;;;9.07;61.79;95884.44;6245175;28;20128;-64
2022/09/06 02:15:28;;;;;;;3.15;2.30;;;;;;;9.12;61.97;95884.94;6243913;28;20038;-63
2022/09/06 02:18:41;;;;;;;4.30;1.73;;;;;;;9.14;61.79;95883.00;6242983;28;20056;-63
2022/09/06 02:21:46;;;;;;;1.80;1.33;;;;;;;9.19;61.57;95880.88;6239248;28;20042;-63
2022/09/06 02:24:51;;;;;;;4.10;2.13;;;;;;;9.25;61.30;95883.03;6259550;28;20420;-63
2022/09/06 02:27:56;;;;;;;2.13;1.83;;;;;;;9.36;61.10;95877.00;6243317;28;20045;-63
2022/09/06 02:31:06;;;;;;;3.67;1.80;;;;;;;9.39;60.77;95882.84;6244127;28;20034;-62
2022/09/06 02:34:12;;;;;;;2.70;1.70;;;;;;;9.44;60.72;95870.19;6243223;28;20237;-63
2022/09/06 02:37:15;;;;;;;2.55;1.92;;;;;;;9.50;60.30;95875.94;6245287;28;20184;-63
2022/09/06 02:40:19;;;;;;;3.42;2.17;;;;;;;9.67;59.76;95875.47;6242943;28;20098;-62
2022/09/06 02:43:21;;;;;;;3.70;2.00;;;;;;;9.71;59.64;95881.31;6243041;28;20045;-62
2022/09/06 02:46:28;;;;;;;3.63;2.30;;;;;;;9.80;59.35;95881.47;6241360;28;20206;-71
2022/09/06 02:49:30;;;;;;;2.53;2.00;;;;;;;9.97;59.24;95895.09;6243591;28;20045;-63
2022/09/06 02:52:31;;;;;;;4.32;2.45;;;;;;;10.11;58.80;95889.59;6242023;28;20531;-63
2022/09/06 02:55:36;;;;;;;2.88;2.15;;;;;;;10.19;58.39;95900.34;6243980;28;20049;-63
2022/09/06 02:58:38;;;;;;;4.53;2.40;;;;;;;10.28;58.07;95896.19;6239973;28;20463;-62
2022/09/06 03:01:45;;;;;;;4.35;1.98;;;;;;;10.30;58.12;95895.09;6241228;28;20045;-64
2022/09/06 03:04:50;;;;;;;3.42;2.20;;;;;;;10.41;57.85;95885.50;6240089;28;20061;-64
2022/09/06 03:07:54;;;;;;;2.03;1.73;;;;;;;10.55;57.46;95888.69;6241667;28;20115;-62
2022/09/06 03:10:59;;;;;;;2.28;2.00;;;;;;;10.68;56.82;95885.91;6240681;28;20464;-64
2022/09/06 03:14:01;;;;;;;3.63;2.00;;;;;;;10.74;56.76;95888.03;6242810;28;20109;-63
2022/09/06 03:17:03;;;;;;;2.17;1.95;;;;;;;10.87;56.20;95873.88;6242940;28;20041;-64
2022/09/06 03:20:08;;;;;;;3.15;2.25;;;;;;;10.95;56.00;95880.19;6240649;28;20041;-63
2022/09/06 03:23:12;;;;;;;5.03;2.63;;;;;;;11.14;55.62;95881.31;6243417;28;20048;-64
2022/09/06 03:26:18;;;;;;;3.95;2.45;;;;;;;11.26;55.12;95882.09;6242731;28;20041;-62
2022/09/06 03:29:25;;;;;;;6.65;3.25;;;;;;;11.29;55.14;95884.47;6242704;28;20049;-63
2022/09/06 03:32:26;;;;;;;5.82;2.83;;;;;;;11.38;54.58;95874.00;6242650;28;20122;-61
2022/09/06 03:35:30;;;;;;;4.07;2.83;;;;;;;11.39;54.70;95888.00;6238809;28;20053;-61
2022/09/06 03:38:32;;;;;;;4.43;2.67;;;;;;;11.49;54.51;95883.63;6240130;28;20065;-63
2022/09/06 03:41:33;;;;;;;6.30;2.53;;;;;;;11.56;54.22;95879.50;6242286;28;20079;-64
2022/09/06 03:44:37;;;;;;;4.78;2.75;;;;;;;11.64;54.06;95876.25;6240041;28;20053;-62
2022/09/06 03:47:38;;;;;;;4.72;2.67;;;;;;;11.69;53.72;95885.41;6241244;28;20535;-63
2022/09/06 03:50:48;;;;;;;7.07;3.28;;;;;;;11.81;53.53;95882.72;6240646;28;20059;-64
2022/09/06 03:53:52;;;;;;;6.60;3.00;;;;;;;11.89;53.29;95890.81;6241281;28;20060;-64
2022/09/06 03:56:54;;;;;;;3.72;2.60;;;;;;;11.91;53.21;95891.50;6242499;28;20244;-63
2022/09/06 03:59:59;;;;;;;5.45;2.80;;;;;;;12.00;52.91;95888.09;6239886;28;20049;-62
2022/09/06 04:03:03;;;;;;;2.38;2.13;;;;;;;11.96;52.86;95886.69;6242231;28;20061;-64
2022/09/06 04:06:05;;;;;;;3.63;2.70;;;;;;;11.93;53.23;95886.94;6240213;28;20057;-63
2022/09/06 04:09:07;;;;;;;8.15;3.70;;;;;;;11.91;53.32;95883.59;6241253;28;20037;-62
2022/09/06 04:12:11;;;;;;;7.10;3.40;;;;;;;11.90;53.06;95887.22;6234616;28;20034;-62
2022/09/06 04:15:13;;;;;;;3.20;2.65;;;;;;;11.81;53.46;95893.25;6240914;28;20041;-62
2022/09/06 04:18:20;;;;;;;5.18;3.85;;;;;;;11.89;53.20;95881.13;6248181;28;20033;-63
2022/09/06 04:21:21;;;;;;;11.52;5.03;;;;;;;11.97;53.09;95880.44;6241437;28;20049;-62
2022/09/06 04:24:22;;;;;;;9.23;4.75;;;;;;;11.98;53.03;95884.75;6239877;28;20049;-63
2022/09/06 04:27:27;;;;;;;11.20;4.80;;;;;;;11.95;53.21;95878.91;6241299;28;20097;-64
2022/09/06 04:30:28;;;;;;;8.60;4.78;;;;;;;11.97;53.17;95869.88;6240824;28;21102;-63
2022/09/06 04:33:38;;;;;;;8.10;4.20;;;;;;;11.96;53.25;95880.59;6241846;28;20112;-64
2022/09/06 04:36:39;;;;;;;8.85;4.53;;;;;;;12.01;52.90;95873.94;6243779;28;20527;-62
2022/09/06 04:39:44;;;;;;;7.25;3.65;;;;;;;11.96;53.00;95873.50;6242039;28;20523;-63
2022/09/06 04:42:48;;;;;;;6.43;3.78;;;;;;;12.07;52.51;95883.94;6233129;28;20049;-62
2022/09/06 04:45:52;;;;;;;5.95;3.70;;;;;;;12.13;52.01;95878.16;6240696;28;20338;-62
2022/09/06 04:48:57;;;;;;;7.20;4.18;;;;;;;12.39;51.70;95877.66;6239423;28;20409;-62
2022/09/06 04:51:58;;;;;;;7.50;4.78;;;;;;;12.87;50.27;95870.81;6240336;28;20124;-62
2022/09/06 04:55:00;;;;;;;7.38;4.70;;;;;;;13.18;49.38;95869.69;6239218;28;20115;-62
2022/09/06 04:58:02;;;;;;;10.52;5.15;;;;;;;13.75;48.24;95871.56;6239237;28;20057;-62
2022/09/06 05:01:04;;;;;;;8.57;5.57;;;;;;;14.23;46.71;95866.09;6236407;28;20045;-62
2022/09/06 05:04:05;;;;;;;9.38;4.97;;;;;;;14.40;46.43;95868.94;6239800;28;20574;-62
2022/09/06 05:07:10;;;;;;;7.95;4.95;;;;;;;14.28;46.40;95868.31;6239049;28;20042;-62
2022/09/06 05:10:14;;;;;;;7.43;4.28;;;;;;;14.66;45.58;95866.44;6239932;28;20428;-62
2022/09/06 05:13:18;;;;;;;6.03;3.55;;;;;;;15.25;43.94;95863.19;6242034;28;20041;-62
2022/09/06 05:16:20;;;;;;;6.45;3.83;;;;;;;15.80;43.01;95866.63;6244102;28;20050;-62
2022/09/06 05:19:27;;;;;;;7.60;5.65;;;;;;;16.17;41.83;95867.16;6245251;28;20037;-62
2022/09/06 05:22:34;;;;;;;11.50;6.10;;;;;;;16.34;41.49;95877.84;6244409;28;20060;-61
2022/09/06 05:25:35;;;;;;;8.43;4.30;;;;;;;16.12;40.95;95877.41;6242011;28;20065;-64
2022/09/06 05:28:39;;;;;;;;;;;;;;;16.08;41.11;95881.38;6247529;28;20049;-63
2022/09/06 05:31:43;;;;;;;;;;;;;;;15.97;40.97;95875.53;6245666;28;19921;-62
2022/09/06 05:34:44;;;;;;;5.63;2.97;;;;;;;16.04;40.43;95872.06;6244922;28;19932;-62
2022/09/06 05:37:52;;;;;;;4.35;2.95;;;;;;;16.32;40.08;95871.88;6251405;28;20413;-62
2022/09/06 05:40:53;;;;;;;5.82;3.47;;;;;;;16.39;39.94;95872.91;6241860;28;20060;-62
2022/09/06 05:43:55;;;;;;;5.43;3.55;;;;;;;16.17;40.12;95871.63;6242793;28;20060;-62
2022/09/06 05:46:56;;;;;;;5.25;2.67;;;;;;;15.82;40.36;95873.41;6245693;28;20045;-63
2022/09/06 05:50:01;;;;;;;4.38;2.50;;;;;;;15.50;40.55;95863.41;6244478;28;20053;-62
2022/09/06 05:53:03;;;;;;;3.53;2.30;;;;;;;15.48;40.29;95860.06;6244150;28;20183;-62
2022/09/06 05:56:05;;;;;;;2.63;1.90;;;;;;;15.34;40.36;95865.91;6244549;28;20050;-62
2022/09/06 05:59:12;;;;;;;2.42;1.50;;;;;;;15.18;40.14;95862.16;6243713;28;20135;-62
2022/09/06 06:02:13;;;;;;;4.45;1.60;;;;;;;15.02;40.33;95859.38;6243358;28;20053;-63
2022/09/06 06:05:15;;;;;;;1.98;1.67;;;;;;;14.97;40.71;95858.97;6244252;28;20033;-62
2022/09/06 06:08:17;;;;;;;3.50;1.50;;;;;;;15.04;40.80;95849.47;6244167;28;20622;-63
2022/09/06 06:11:18;;;;;;;4.18;2.03;;;;;;;15.05;40.87;95845.81;6245135;28;20041;-63
2022/09/06 06:14:22;;;;;;;4.43;2.35;;;;;;;15.07;40.68;95848.31;6244367;28;20073;-63
2022/09/06 06:17:24;;;;;;;3.25;1.60;;;;;;;14.82;40.99;95848.91;6244737;28;20139;-62
2022/09/06 06:20:25;;;;;;;3.50;2.03;;;;;;;14.65;41.37;95849.72;6244345;28;20068;-63
2022/09/06 06:23:29;;;;;;;4.70;2.33;;;;;;;14.53;41.51;95829.75;6242363;28;20060;-62
2022/09/06 06:26:34;;;;;;;4.50;2.50;;;;;;;14.84;41.12;95853.25;6244389;28;20420;-63
2022/09/06 06:29:35;;;;;;;5.25;2.70;;;;;;;14.95;41.04;95845.06;6242492;28;20534;-63
2022/09/06 06:32:40;;;;;;;8.05;3.53;;;;;;;15.21;40.71;95845.97;6244252;28;20049;-63
2022/09/06 06:35:54;;;;;;;5.78;3.00;;;;;;;15.20;40.82;95839.00;6243274;28;20089;-63
2022/09/06 06:38:57;;;;;;;8.57;3.92;;;;;;;15.27;40.63;95840.03;6243880;28;20048;-62
2022/09/06 06:41:58;;;;;;;6.00;2.80;;;;;;;15.35;40.84;95835.81;6240638;28;20053;-62
2022/09/06 06:45:02;;;;;;;6.80;2.80;;;;;;;15.41;40.66;95825.41;6243399;28;20052;-62
2022/09/06 06:48:06;;;;;;;4.57;2.55;;;;;;;15.36;40.35;95805.66;6244324;28;20132;-62
2022/09/06 06:51:11;;;;;;;2.70;1.98;;;;;;;15.39;40.20;95824.72;6242166;28;20369;-63
2022/09/06 06:54:12;;;;;;;5.60;3.40;;;;;;;15.36;40.26;95832.16;6243272;28;20409;-62
2022/09/06 06:57:13;;;;;;;6.15;3.70;;;;;;;15.17;40.63;95830.50;6242341;28;20052;-62
2022/09/06 07:00:15;;;;;;;5.10;2.95;;;;;;;15.24;40.56;95819.16;6242426;28;21096;-62
2022/09/06 07:03:19;;;;;;;5.28;2.90;;;;;;;15.41;40.19;95806.84;6243207;28;20041;-63
2022/09/06 07:06:22;;;;;;;6.32;3.13;;;;;;;15.61;40.14;95820.72;6242315;28;20127;-62
2022/09/06 07:09:26;;;;;;;9.27;3.60;;;;;;;15.91;39.81;95810.66;6243273;28;20504;-62
2022/09/06 07:12:31;;;;;;;9.30;3.50;;;;;;;16.30;39.30;95804.81;6243046;28;20042;-62
2022/09/06 07:15:35;;;;;;;5.82;2.90;;;;;;;16.41;39.03;95811.66;6242017;28;20037;-62
2022/09/06 07:18:41;;;;;;;4.95;2.80;;;;;;;16.08;39.71;95812.38;6242654;28;20409;-62
2022/09/06 07:21:47;;;;;;;4.75;2.85;;;;;;;15.84;40.19;95801.66;6242376;28;20095;-62
2022/09/06 07:24:51;;;;;;;4.15;2.78;;;;;;;15.70;40.29;95809.19;6242724;28;20053;-63
2022/09/06 07:28:01;;;;;;;4.60;2.63;;;;;;;15.69;40.35;95796.13;6242213;28;20417;-62
2022/09/06 07:31:06;;;;;;;4.15;3.10;;;;;;;15.68;40.34;95800.59;6243468;28;20030;-63
2022/09/06 07:34:10;;;;;;;8.13;3.50;;;;;;;15.56;40.43;95801.78;6241771;28;20053;-63
2022/09/06 07:37:11;;;;;;;7.28;4.28;;;;;;;15.33;40.98;95800.66;6240673;28;20046;-62
2022/09/06 07:40:15;;;;;;;3.80;2.30;;;;;;;15.32;41.06;95797.19;6239972;28;20033;-62
2022/09/06 07:43:17;;;;;;;5.50;2.60;;;;;;;15.38;41.09;95796.56;6242925;28;20124;-62
2022/09/06 07:46:18;;;;;;;5.18;1.83;;;;;;;15.41;40.72;95793.59;6240848;28;20378;-62
2022/09/06 07:49:20;;;;;;;6.20;2.90;;;;;;;15.11;41.28;95786.91;6241126;28;20079;-63
2022/09/06 07:52:27;;;;;;;7.80;3.35;;;;;;;14.94;41.59;95801.84;6241506;28;20525;-62
2022/09/06 07:55:34;;;;;;;8.23;3.95;;;;;;;14.85;41.83;95796.63;6241837;28;20057;-63
2022/09/06 07:58:35;;;;;;;4.72;2.47;;;;;;;14.89;42.00;95804.13;6241688;28;20049;-62
2022/09/06 08:01:39;;;;;;;;;;;;;;;15.14;41.54;95797.19;6243193;28;20041;-62
2022/09/06 08:04:41;;;;;;;8.25;4.50;;;;;;;15.02;41.48;95787.84;6244044;28;20041;-62
2022/09/06 08:07:45;;;;;;;7.75;4.32;;;;;;;14.90;41.79;95794.38;6243553;28;20041;-62
2022/09/06 08:10:50;;;;;;;6.18;4.07;;;;;;;14.96;41.52;95789.28;6243415;28;20053;-62
2022/09/06 08:13:56;;;;;;;7.45;3.83;;;;;;;15.21;41.20;95782.34;6243470;28;20416;-64
2022/09/06 08:17:01;;;;;;;3.55;2.08;;;;;;;16.11;39.36;95774.91;6243377;28;20400;-64
2022/09/06 08:20:03;;;;;;;3.17;2.53;;;;;;;16.34;38.91;95787.59;6242733;28;20056;-64
2022/09/06 08:23:10;;;;;;;2.25;1.42;;;;;;;16.14;38.97;95779.91;6244392;28;20045;-65
2022/09/06 08:26:13;;;;;;;4.07;2.13;;;;;;;15.82;39.30;95774.44;6239555;28;20038;-65
2022/09/06 08:29:15;;;;;;;3.22;2.33;;;;;;;15.48;40.10;95768.13;6242756;28;20050;-66
2022/09/06 08:32:18;;;;;;;3.70;2.28;;;;;;;15.46;40.19;95753.38;6243626;28;20072;-64
2022/09/06 08:35:23;;;;;;;12.52;2.08;;;;;;;15.61;39.79;95751.78;6241882;28;20041;-65
2022/09/06 08:38:25;;;;;;;5.13;2.42;;;;;;;15.71;39.56;95763.16;6244553;28;20033;-65
2022/09/06 08:41:43;;;;;;;3.00;1.90;;;;;;;15.55;39.99;95763.03;6218253;28;20052;-65
2022/09/06 08:44:52;;;;;;;4.30;2.20;;;;;;;15.34;40.08;95770.50;6241731;28;20041;-65
2022/09/06 08:47:56;;;;;;;3.08;1.80;;;;;;;14.95;40.78;95784.16;6242780;28;20116;-65
2022/09/06 08:51:28;;;;;;;5.03;1.90;;;;;;;14.67;41.44;95778.94;6243112;28;20052;-64
2022/09/06 08:54:41;;;;;;;2.08;1.70;;;;;;;14.32;42.32;95769.97;6243049;28;20053;-66
2022/09/06 08:57:50;;;;;;;4.55;2.20;;;;;;;14.20;42.87;95765.84;6243092;28;20064;-65
2022/09/06 09:00:59;;;;;;;4.53;2.00;;;;;;;14.13;42.99;95775.38;6240947;28;20045;-65
2022/09/06 09:04:04;;;;;;;3.53;2.05;;;;;;;14.18;42.75;95773.09;6240610;28;20132;-64
2022/09/06 09:07:28;;;;;;;3.40;2.00;;;;;;;14.44;42.33;95772.41;6242159;28;20050;-65
2022/09/06 09:10:53;;;;;;;2.67;1.85;;;;;;;14.43;42.26;95802.47;6242464;28;20045;-65
2022/09/06 09:14:03;;;;;;;6.70;2.42;;;;;;;14.28;42.56;95803.00;6242190;28;20184;-64
2022/09/06 09:17:19;;;;;;;3.30;2.08;;;;;;;14.06;42.77;95796.28;6242745;28;20042;-66
2022/09/06 09:20:21;;;;;;;2.45;1.80;;;;;;;13.81;43.12;95797.78;6242267;28;20053;-66
2022/09/06 09:23:23;;;;;;;4.75;1.70;;;;;;;13.71;43.24;95802.31;6243140;28;20187;-65
2022/09/06 09:26:31;;;;;;;3.35;1.98;;;;;;;13.43;44.22;95798.78;6237574;28;20462;-66
2022/09/06 09:29:52;;;;;;;5.55;2.65;;;;;;;13.33;43.92;95804.06;6242797;28;20045;-65
2022/09/06 09:32:54;;;;;;;6.53;2.92;;;;;;;13.11;44.36;95804.38;6242633;28;20050;-65
2022/09/06 09:35:58;;;;;;;8.25;4.07;;;;;;;13.11;44.63;95809.66;6242779;28;20416;-64
2022/09/06 09:39:09;;;;;;;6.80;2.90;;;;;;;12.95;45.00;95789.94;6242155;28;20042;-65
2022/09/06 09:42:29;;;;;;;8.10;3.17;;;;;;;13.08;44.74;95788.78;6241919;28;20140;-65
2022/09/06 09:45:33;;;;;;;5.28;2.80;;;;;;;13.33;44.01;95776.81;6240607;28;20047;-65
2022/09/06 09:48:35;;;;;;;5.68;2.35;;;;;;;13.69;43.40;95783.94;6242099;28;20050;-64
2022/09/06 09:51:58;;;;;;;7.63;3.13;;;;;;;13.91;42.93;95771.31;6237328;28;20037;-65
2022/09/06 09:55:04;;;;;;;17.50;3.80;;;;;;;14.23;42.29;95770.84;6238810;28;20057;-65
2022/09/06 09:58:17;;;;;;;5.43;2.97;;;;;;;14.69;41.22;95761.09;6239876;28;20084;-65
2022/09/06 10:01:25;;;;;;;5.25;2.17;;;;;;;15.39;39.67;95750.50;6241185;28;20060;-64
2022/09/06 10:04:37;;;;;;;5.05;2.13;;;;;;;15.84;38.97;95753.91;6242813;28;20061;-66
2022/09/06 10:07:50;;;;;;;5.03;2.05;;;;;;;15.77;38.77;95751.06;6242238;28;20424;-65
2022/09/06 10:10:52;;;;;;;17.40;10.10;;;;;;;15.36;39.58;95763.25;6242272;28;20669;-66
2022/09/06 10:14:10;;;;;;;18.17;9.73;;;;;;;14.93;40.03;95772.88;6242274;28;20092;-66
2022/09/06 10:17:20;;;;;;;6.00;3.92;;;;;;;14.48;40.83;95768.47;6236869;28;20139;-65
2022/09/06 10:20:38;;;;;;;4.85;2.53;;;;;;;14.11;41.59;95754.34;6240754;28;20103;-67
2022/09/06 10:24:05;;;;;;;5.05;2.13;;;;;;;13.93;41.69;95764.91;6243404;28;20041;-66
2022/09/06 10:27:09;;;;;;;2.95;1.83;;;;;;;13.65;42.31;95750.03;6238859;28;20041;-65
2022/09/06 10:30:14;;;;;;;1.90;1.60;;;;;;;13.65;41.83;95760.59;6235951;28;20045;-66
2022/09/06 10:33:48;;;;;;;3.60;3.00;;;;;;;13.61;41.92;95756.56;6241575;28;20156;-65
2022/09/06 10:37:17;;;;;;;4.13;2.92;;;;;;;13.54;42.09;95753.69;6243146;28;20033;-65
2022/09/06 10:40:20;;;;;;;3.08;1.52;;;;;;;13.50;42.23;95751.44;6245662;28;20045;-65
2022/09/06 10:43:26;;;;;;;4.15;1.35;;;;;;;13.43;42.21;95751.22;6243012;28;20052;-65
2022/09/06 10:46:35;;;;;;;3.42;1.52;;;;;;;13.41;42.26;95753.97;6241971;28;20127;-64
2022/09/06 10:49:47;;;;;;;4.05;1.58;;;;;;;13.28;42.71;95769.34;6245257;28;20041;-65
2022/09/06 10:52:53;;;;;;;3.42;1.55;;;;;;;13.22;42.50;95775.16;6243386;28;20459;-64
2022/09/06 10:56:15;;;;;;;2.97;1.58;;;;;;;13.13;42.90;95771.53;6243672;28;20045;-65
2022/09/06 10:59:33;;;;;;;5.20;1.73;;;;;;;12.98;43.13;95768.50;6244234;28;20164;-64
2022/09/06 11:02:53;;;;;;;3.55;2.30;;;;;;;13.02;43.09;95769.91;6242878;28;20509;-64
2022/09/06 11:06:03;;;;;;;4.65;1.90;;;;;;;12.92;43.66;95774.38;6242139;28;20140;-64
2022/09/06 11:09:31;;;;;;;6.95;2.28;;;;;;;12.88;43.96;95773.00;6243275;28;20049;-65
2022/09/06 11:13:03;;;;;;;4.75;2.42;;;;;;;12.90;44.34;95780.75;6224445;28;20216;-67
2022/09/06 11:16:12;;;;;;;3.88;1.95;;;;;;;12.82;44.71;95768.25;6233029;28;20175;-64
2022/09/06 11:19:21;;;;;;;6.35;2.53;;;;;;;12.77;45.09;95765.22;6241300;28;20509;-63
2022/09/06 11:22:42;;;;;;;5.30;2.95;;;;;;;12.70;45.32;95769.38;6241408;28;20057;-63
2022/09/06 11:25:55;;;;;;;4.80;2.42;;;;;;;12.59;45.41;95773.81;6242188;28;20044;-68
2022/09/06 11:29:00;;;;;;;3.58;2.60;;;;;;;12.40;45.73;95767.69;6239062;28;20052;-62
2022/09/06 11:32:02;;;;;;;;;;;;;;;12.47;45.60;95774.94;6244205;28;20517;-63
2022/09/06 11:35:08;;;;;;;7.40;2.65;;;;;;;12.34;45.93;95767.31;6257369;28;19917;-65
2022/09/06 11:38:15;;;;;;;5.10;2.75;;;;;;;12.32;46.39;95752.56;6247876;28;20041;-61
2022/09/06 11:41:19;;;;;;;5.63;3.17;;;;;;;12.36;46.65;95756.59;6239936;28;20045;-62
2022/09/06 11:44:48;;;;;;;3.92;3.10;;;;;;;12.35;46.95;95760.22;6240008;28;20083;-67
2022/09/06 11:47:53;;;;;;;5.35;3.38;;;;;;;12.32;46.96;95742.03;6240869;28;20041;-65
2022/09/06 11:50:57;;;;;;;6.13;3.58;;;;;;;12.28;47.22;95743.25;6239044;28;20045;-65
2022/09/06 11:54:04;;;;;;;4.78;3.67;;;;;;;12.32;47.24;95740.22;6242784;28;20041;-66
2022/09/06 11:57:14;;;;;;;5.05;3.33;;;;;;;12.37;47.06;95742.44;6257196;28;20186;-65
2022/09/06 12:00:23;;;;;;;6.00;3.33;;;;;;;12.43;47.18;95736.63;6267504;28;20064;-66
2022/09/06 12:03:48;;;;;;;5.22;3.47;;;;;;;12.43;47.31;95747.16;6263067;28;20526;-65
2022/09/06 12:07:10;;;;;;;4.97;2.90;;;;;;;12.34;47.89;95747.97;6243154;28;20444;-64
2022/09/06 12:10:48;;;;;;;7.43;3.58;;;;;;;12.35;47.85;95741.75;6243508;28;20049;-64
2022/09/06 12:13:56;;;;;;;4.35;2.88;;;;;;;12.29;47.82;95739.66;6202630;28;20041;-65
2022/09/06 12:16:58;;;;;;;3.95;3.05;;;;;;;12.16;48.16;95733.81;6240369;28;20416;-67
2022/09/06 12:20:05;;;;;;;7.90;3.42;;;;;;;12.15;48.24;95732.16;6242643;28;20513;-64
2022/09/06 12:23:06;;;;;;;6.30;3.60;;;;;;;11.99;48.77;95738.78;6240594;28;20045;-65
2022/09/06 12:26:09;;;;;;;7.03;3.58;;;;;;;11.96;49.14;95741.69;6239503;28;20049;-65
2022/09/06 12:29:11;;;;;;;5.28;3.78;;;;;;;11.95;49.61;95744.47;6240969;28;20120;-65
2022/09/06 12:32:40;;;;;;;8.73;5.10;;;;;;;11.80;50.19;95733.44;6240036;28;20041;-65
2022/09/06 12:35:49;;;;;;;11.35;5.93;;;;;;;11.72;51.16;95746.44;6239874;28;22540;-65
2022/09/06 12:38:54;;;;;;;14.25;6.65;;;;;;;11.61;51.97;95747.41;6241585;28;20049;-65
2022/09/06 12:42:01;;;;;;;9.85;6.03;;;;;;;11.47;52.42;95745.97;6238590;28;20045;-67
2022/09/06 12:45:04;;;;;;;11.40;5.55;;;;;;;11.45;52.49;95747.88;6241360;28;20045;-65
2022/09/06 12:48:09;;;;;;;7.07;4.60;;;;;;;11.44;52.49;95756.75;6243040;28;20052;-65
2022/09/06 12:51:19;;;;;;;6.95;4.68;;;;;;;11.35;52.66;95753.13;6242993;28;20061;-65
2022/09/06 12:54:27;;;;;;;8.90;3.97;;;;;;;11.36;52.55;95752.16;6243155;28;20045;-65
2022/09/06 12:57:34;;;;;;;7.20;4.63;;;;;;;11.39;52.59;95756.31;6248304;28;20094;-65
2022/09/06 13:00:36;;;;;;;;;;;;;;;11.48;52.11;95754.69;6243214;28;20144;-64
2022/09/06 13:04:09;;;;;;;7.43;4.50;;;;;;;11.42;52.42;95756.88;6239821;28;19921;-66
2022/09/06 13:07:17;;;;;;;7.50;5.20;;;;;;;11.40;52.51;95757.97;6238729;28;20033;-65
2022/09/06 13:10:27;;;;;;;7.50;3.60;;;;;;;11.38;52.50;95762.53;6236854;28;20710;-65
2022/09/06 13:13:32;;;;;;;5.30;3.90;;;;;;;11.34;52.61;95769.03;6238488;28;20041;-66
2022/09/06 13:16:49;;;;;;;5.72;3.35;;;;;;;11.34;52.79;95774.31;6242502;28;20041;-64
2022/09/06 13:19:50;;;;;;;3.55;2.88;;;;;;;11.20;53.05;95764.94;6256746;28;20134;-64
2022/09/06 13:23:04;;;;;;;6.47;3.50;;;;;;;11.30;52.88;95770.28;6241593;28;20057;-65
2022/09/06 13:26:08;;;;;;;6.25;3.38;;;;;;;11.29;52.85;95765.97;6254054;28;20420;-65
2022/09/06 13:29:10;;;;;;;5.03;3.05;;;;;;;11.22;53.29;95766.47;6239945;28;20049;-65
2022/09/06 13:32:13;;;;;;;4.28;3.22;;;;;;;11.20;53.57;95760.50;6239987;28;20071;-64
2022/09/06 13:35:28;;;;;;;3.90;3.17;;;;;;;11.16;53.89;95755.66;6245141;28;20048;-66
2022/09/06 13:38:41;;;;;;;4.72;3.03;;;;;;;11.08;54.70;95758.94;6247406;28;20519;-66
2022/09/06 13:41:43;;;;;;;5.60;3.30;;;;;;;11.03;54.99;95758.47;6246330;28;20538;-66
2022/09/06 13:44:44;;;;;;;5.85;3.65;;;;;;;10.99;55.58;95754.44;6246052;28;20483;-66
2022/09/06 13:47:49;;;;;;;6.50;4.10;;;;;;;10.85;56.47;95754.78;6242233;28;20418;-65
2022/09/06 13:50:50;;;;;;;8.23;4.72;;;;;;;10.85;56.88;95746.88;6246605;28;20622;-65
2022/09/06 13:54:03;;;;;;;8.23;5.50;;;;;;;10.81;57.55;95751.53;6245849;28;20049;-65
2022/09/06 13:57:10;;;;;;;9.77;5.55;;;;;;;10.81;57.63;95750.72;6247057;28;20053;-66
2022/09/06 14:00:12;;;;;;;10.40;5.45;;;;;;;10.82;57.89;95753.22;6246912;28;20487;-65
2022/09/06 14:03:25;;;;;;;10.60;5.20;;;;;;;10.87;58.43;95747.56;6246203;28;20440;-65
2022/09/06 14:06:29;;;;;;;8.18;5.20;;;;;;;10.85;58.80;95752.13;6246314;28;20041;-65
2022/09/06 14:09:32;;;;;;;10.23;6.43;;;;;;;10.81;59.43;95755.97;6246835;28;20056;-65
2022/09/06 14:12:37;;;;;;;9.88;6.40;;;;;;;10.68;60.32;95764.91;6246627;28;20068;-65
2022/09/06 14:15:41;;;;;;;10.45;6.90;;;;;;;10.45;61.34;95755.44;6246100;28;20136;-65
2022/09/06 14:18:43;;;;;;;;;;;;;;;10.25;61.11;95760.50;6246722;28;20061;-65
2022/09/06 14:21:45;;;;;;;12.00;6.25;;;;;;;10.03;63.52;95760.56;6260234;28;20304;-66
2022/09/06 14:24:51;;;;;;;8.38;4.93;;;;;;;9.65;64.73;95764.44;6248147;28;20053;-66
2022/09/06 14:27:53;;;;;;;5.20;4.03;;;;;;;9.40;65.66;95744.53;6246860;28;20042;-64
2022/09/06 14:30:55;;;;;;;7.80;4.32;;;;;;;9.22;66.56;95754.66;6246414;28;20425;-65
2022/09/06 14:34:00;;;;;;;6.30;4.10;;;;;;;9.03;67.79;95744.78;6246489;28;20112;-65
2022/09/06 14:37:04;;;;;;;4.95;4.07;;;;;;;9.03;68.13;95750.03;6246375;28;20131;-66
2022/09/06 14:40:12;;;;;;;5.10;3.88;;;;;;;8.99;68.94;95754.63;6245889;28;20045;-65
2022/09/06 14:43:18;;;;;;;5.35;4.13;;;;;;;8.94;69.33;95754.16;6245980;28;20056;-66
2022/09/06 14:46:28;;;;;;;6.00;5.13;;;;;;;8.87;69.85;95760.84;6245622;28;20047;-66